createdAt,value
2019-05-30T17:58:42.272Z,3.03
2019-05-30T18:03:46.971Z,3.47
2019-05-30T18:08:51.727Z,2.77
2019-05-30T18:13:56.393Z,2.50
2019-05-30T18:19:01.205Z,3.33
2019-05-30T18:24:07.569Z,3.40
2019-05-30T18:29:12.131Z,3.30
2019-05-30T18:34:16.959Z,3.20
2019-05-30T18:39:22.374Z,3.10
2019-05-30T18:44:30.201Z,3.40
2019-05-30T18:49:34.089Z,2.80
2019-05-30T18:54:38.850Z,3.30
2019-05-30T18:59:43.476Z,3.00
2019-05-30T19:04:48.120Z,3.00
2019-05-30T19:09:52.802Z,2.57
2019-05-30T19:14:59.464Z,3.13
2019-05-30T19:20:04.623Z,2.70
2019-05-30T19:25:09.480Z,3.10
2019-05-30T19:30:15.161Z,2.70
2019-05-30T19:35:23.776Z,3.00
2019-05-30T19:40:29.484Z,3.33
2019-05-30T19:45:34.620Z,2.90
2019-05-30T19:50:40.331Z,2.67
2019-05-30T19:55:45.118Z,2.20
2019-05-30T20:00:58.056Z,3.07
2019-05-30T20:05:56.989Z,2.63
2019-05-30T20:11:01.660Z,2.50
2019-05-30T20:16:12.593Z,2.77
2019-05-30T20:21:18.293Z,2.67
2019-05-30T20:26:23.083Z,2.60
2019-05-30T20:31:28.006Z,2.90
2019-05-30T20:36:32.783Z,2.90
2019-05-30T20:41:38.806Z,2.73
2019-05-30T20:46:43.606Z,2.63
2019-05-30T20:51:49.228Z,2.90
2019-05-30T20:56:53.913Z,2.33
2019-05-30T21:02:00.132Z,2.80
2019-05-30T21:07:08.385Z,2.50
2019-05-30T21:12:16.065Z,2.50
2019-05-30T21:17:23.500Z,2.70
2019-05-30T21:22:44.657Z,2.40
2019-05-30T21:28:06.078Z,2.30
2019-05-30T21:33:12.364Z,2.10
2019-05-30T21:38:17.145Z,1.90
2019-05-30T21:43:21.894Z,2.40
2019-05-30T21:48:26.572Z,2.70
2019-05-30T21:53:32.625Z,2.07
2019-05-30T21:58:37.506Z,2.07
2019-05-30T22:03:42.760Z,2.00
2019-05-30T22:08:49.327Z,2.20
2019-05-30T22:13:56.909Z,2.17
2019-05-30T22:19:08.260Z,1.87
2019-05-30T22:24:13.131Z,2.27
2019-05-30T22:29:17.936Z,2.23
2019-05-30T22:34:22.601Z,2.00
2019-05-30T22:39:27.413Z,2.43
2019-05-30T22:44:32.161Z,2.43
2019-05-30T22:49:36.898Z,2.03
2019-05-30T22:54:45.240Z,2.27
2019-05-30T22:59:50.955Z,2.07
2019-05-30T23:04:56.407Z,2.37
2019-05-30T23:10:01.200Z,2.20
2019-05-30T23:15:06.320Z,2.40
2019-05-30T23:20:11.334Z,2.37
2019-05-30T23:25:16.298Z,2.40
2019-05-30T23:30:21.222Z,1.97
2019-05-30T23:35:26.304Z,2.30
2019-05-30T23:40:31.008Z,1.97
2019-05-30T23:45:35.827Z,2.30
2019-05-30T23:50:50.189Z,1.90
2019-05-30T23:55:54.880Z,2.33
